Time;durP1;ratioP1;P1;durP2;ratioP2;P2;SDS_P1;SDS_P2;PMS_P1;PMS_P2;Temp;Humidity;BMP_temperature;BMP_pressure;BME280_temperature;BME280_humidity;BME280_pressure;Samples;Min_cycle;Max_cycle;Signal;HPM_P1;HPM_P2
2022/08/10 00:00:52;;;;;;;1.90;1.70;;;;;;;15.24;91.77;101829.34;5011722;28;20201;-70
2022/08/10 00:03:18;;;;;;;1.87;1.70;;;;;;;15.15;91.74;101825.19;5006480;28;20246;-68
2022/08/10 00:05:45;;;;;;;2.47;1.80;;;;;;;15.14;92.59;101835.75;5010292;28;20665;-68
2022/08/10 00:08:11;;;;;;;2.03;1.83;;;;;;;15.06;92.06;101833.31;4990386;28;20215;-67
2022/08/10 00:10:38;;;;;;;2.53;1.70;;;;;;;14.99;93.45;101834.38;5018750;28;20204;-69
2022/08/10 00:13:04;;;;;;;2.30;1.93;;;;;;;15.03;95.54;101830.75;5017302;28;20254;-68
2022/08/10 00:15:31;;;;;;;3.17;2.00;;;;;;;14.90;92.74;101845.13;5006855;28;20931;-69
2022/08/10 00:17:58;;;;;;;2.30;2.10;;;;;;;14.89;94.67;101835.50;5006041;28;20307;-68
2022/08/10 00:20:25;;;;;;;2.40;2.03;;;;;;;14.80;93.34;101838.38;5001956;28;20474;-71
2022/08/10 00:22:52;;;;;;;3.57;1.90;;;;;;;14.83;95.04;101825.16;5007507;28;20220;-68
2022/08/10 00:25:18;;;;;;;1.80;1.60;;;;;;;14.85;94.17;101834.72;5016795;28;20212;-69
2022/08/10 00:27:44;;;;;;;2.20;2.00;;;;;;;14.94;94.61;101825.75;5010189;28;20623;-69
2022/08/10 00:30:12;;;;;;;3.87;2.20;;;;;;;14.90;94.54;101818.88;5017566;28;20201;-68
2022/08/10 00:32:38;;;;;;;3.00;2.10;;;;;;;14.82;93.16;101821.66;5035019;23;20231;-72
2022/08/10 00:35:07;;;;;;;2.30;1.67;;;;;;;14.82;94.41;101819.03;5032826;28;20528;-72
2022/08/10 00:37:33;;;;;;;4.90;2.17;;;;;;;14.76;93.77;101819.22;5048756;28;20306;-73
2022/08/10 00:40:00;;;;;;;1.83;1.60;;;;;;;14.67;93.94;101822.91;5032535;28;20204;-72
2022/08/10 00:42:26;;;;;;;2.93;1.77;;;;;;;14.67;94.23;101824.66;5050925;28;20595;-72
2022/08/10 00:44:53;;;;;;;2.27;1.80;;;;;;;14.63;95.04;101818.63;5016535;28;20207;-72
2022/08/10 00:47:20;;;;;;;3.50;2.00;;;;;;;14.63;95.46;101820.41;5036704;28;20717;-73
2022/08/10 00:49:47;;;;;;;2.97;2.10;;;;;;;14.61;95.28;101817.81;5034149;28;20203;-73
2022/08/10 00:52:17;;;;;;;2.37;2.03;;;;;;;14.53;95.32;101820.59;5041521;28;20219;-72
2022/08/10 00:54:44;;;;;;;3.07;1.80;;;;;;;14.62;96.34;101821.31;5041227;28;20207;-72
2022/08/10 00:57:11;;;;;;;2.37;2.00;;;;;;;14.47;95.63;101812.84;5035841;28;20201;-73
2022/08/10 00:59:38;;;;;;;2.83;2.03;;;;;;;14.45;97.09;101813.78;5052621;28;20191;-73
2022/08/10 01:02:05;;;;;;;2.60;2.07;;;;;;;14.47;98.23;101817.25;5047093;28;20205;-73
2022/08/10 01:04:32;;;;;;;1.80;1.70;;;;;;;14.35;97.41;101811.41;5039707;28;20204;-73
2022/08/10 01:07:12;;;;;;;3.03;1.90;;;;;;;14.30;97.97;101815.88;5037253;28;20302;-73
2022/08/10 01:09:51;;;;;;;2.87;1.93;;;;;;;14.25;98.66;101811.59;5030788;28;20209;-73
2022/08/10 01:12:28;;;;;;;3.23;2.00;;;;;;;14.19;98.77;101816.13;5034224;28;20226;-73
2022/08/10 01:15:03;;;;;;;2.40;2.10;;;;;;;14.32;99.65;101815.84;5037017;28;20214;-73
2022/08/10 01:17:41;;;;;;;1.93;1.77;;;;;;;14.25;98.57;101820.38;5043327;28;20194;-72
2022/08/10 01:20:18;;;;;;;2.10;1.80;;;;;;;14.18;100.00;101818.78;5041995;28;20199;-72
2022/08/10 01:23:03;;;;;;;3.27;2.17;;;;;;;14.02;99.65;101820.88;5036693;28;20228;-72
2022/08/10 01:25:50;;;;;;;2.23;1.90;;;;;;;14.00;100.00;101814.78;5038435;28;20212;-72
2022/08/10 01:28:26;;;;;;;2.40;2.20;;;;;;;14.00;100.00;101813.03;5029608;28;20189;-73
2022/08/10 01:30:58;;;;;;;5.90;2.40;;;;;;;13.98;100.00;101809.59;5013575;28;20208;-72
2022/08/10 01:33:29;;;;;;;2.47;1.97;;;;;;;14.01;100.00;101801.63;5046876;28;20226;-72
2022/08/10 01:35:59;;;;;;;2.77;1.93;;;;;;;13.95;100.00;101814.91;5016307;28;20327;-72
2022/08/10 01:38:32;;;;;;;4.93;2.00;;;;;;;13.99;100.00;101810.44;4999990;28;20206;-72
2022/08/10 01:41:04;;;;;;;2.13;1.80;;;;;;;13.85;100.00;101809.88;5022814;28;20207;-72
2022/08/10 01:43:34;;;;;;;2.77;2.27;;;;;;;13.74;100.00;101800.47;5010769;28;20229;-72
2022/08/10 01:46:03;;;;;;;2.27;2.07;;;;;;;13.66;100.00;101802.38;5015934;28;20666;-72
2022/08/10 01:48:31;;;;;;;2.20;1.90;;;;;;;13.78;100.00;101801.28;4994284;28;20197;-72
2022/08/10 01:51:10;;;;;;;2.23;2.03;;;;;;;13.88;100.00;101799.31;4998172;28;20676;-72
2022/08/10 01:53:41;;;;;;;6.03;2.77;;;;;;;13.63;100.00;101813.81;5016757;28;20601;-72
2022/08/10 01:56:10;;;;;;;4.83;2.60;;;;;;;13.49;100.00;101809.72;5022394;28;20223;-72
2022/08/10 01:58:38;;;;;;;2.90;2.40;;;;;;;13.33;100.00;101803.91;5011328;28;20558;-72
2022/08/10 02:01:07;;;;;;;2.33;2.13;;;;;;;13.39;100.00;101809.91;5029385;28;20210;-72
2022/08/10 02:03:37;;;;;;;2.53;2.30;;;;;;;13.44;100.00;101804.56;5013823;28;20210;-73
2022/08/10 02:06:06;;;;;;;2.10;1.90;;;;;;;13.53;100.00;101807.00;5002973;28;20213;-72
2022/08/10 02:08:35;;;;;;;3.53;1.90;;;;;;;13.52;100.00;101809.66;5011202;28;20239;-72
2022/08/10 02:11:02;;;;;;;3.07;2.40;;;;;;;13.37;100.00;101814.31;5011215;28;20681;-72
2022/08/10 02:13:31;;;;;;;4.97;2.50;;;;;;;13.33;100.00;101812.66;4998583;28;20243;-72
2022/08/10 02:15:59;;;;;;;2.27;2.03;;;;;;;13.32;100.00;101805.66;5020866;28;20216;-73
2022/08/10 02:18:29;;;;;;;3.37;2.50;;;;;;;13.38;100.00;101805.53;5019044;28;20205;-72
2022/08/10 02:20:57;;;;;;;3.50;2.30;;;;;;;13.38;100.00;101809.91;5021466;28;20812;-72
2022/08/10 02:23:26;;;;;;;2.97;2.10;;;;;;;13.34;100.00;101808.25;5009049;28;20230;-72
2022/08/10 02:25:55;;;;;;;3.67;2.10;;;;;;;13.30;100.00;101815.28;5012639;28;20199;-72
2022/08/10 02:28:23;;;;;;;2.80;2.30;;;;;;;13.24;100.00;101810.13;5016378;28;20550;-73
2022/08/10 02:30:54;;;;;;;3.37;2.10;;;;;;;13.30;100.00;101809.16;5011708;28;20207;-72
2022/08/10 02:33:23;;;;;;;6.27;2.60;;;;;;;13.18;100.00;101805.03;5023759;28;20617;-72
2022/08/10 02:35:53;;;;;;;5.70;2.40;;;;;;;13.14;100.00;101809.47;5019924;28;20208;-72
2022/08/10 02:38:23;;;;;;;2.90;2.30;;;;;;;13.32;100.00;101808.28;5014627;28;20211;-72
2022/08/10 02:40:56;;;;;;;2.30;2.00;;;;;;;13.25;100.00;101817.97;5014285;28;20207;-72
2022/08/10 02:43:30;;;;;;;3.13;2.50;;;;;;;13.21;100.00;101807.59;5023939;28;20650;-72
2022/08/10 02:46:03;;;;;;;2.47;2.20;;;;;;;13.18;100.00;101812.88;5025354;28;20205;-72
2022/08/10 02:48:39;;;;;;;2.37;2.17;;;;;;;13.19;100.00;101814.59;5013392;28;20561;-72
2022/08/10 02:51:14;;;;;;;2.50;2.13;;;;;;;13.11;100.00;101809.50;5016277;28;20199;-73
2022/08/10 02:53:44;;;;;;;3.47;2.60;;;;;;;13.24;100.00;101815.38;5007625;28;20216;-73
2022/08/10 02:56:16;;;;;;;3.27;2.43;;;;;;;13.11;100.00;101830.47;5017732;28;20197;-73
2022/08/10 02:58:45;;;;;;;2.83;2.27;;;;;;;13.13;100.00;101831.28;5010142;28;20206;-73
2022/08/10 03:01:18;;;;;;;2.77;2.20;;;;;;;13.31;100.00;101834.47;5014457;28;20211;-72
2022/08/10 03:03:49;;;;;;;3.70;2.60;;;;;;;13.30;100.00;101831.00;5009855;28;20220;-73
2022/08/10 03:06:21;;;;;;;5.30;2.60;;;;;;;13.37;100.00;101832.63;5016225;28;20568;-72
2022/08/10 03:08:49;;;;;;;3.87;2.77;;;;;;;13.27;100.00;101828.44;4975465;28;20229;-72
2022/08/10 03:11:21;;;;;;;5.70;2.30;;;;;;;13.06;100.00;101829.66;5010597;28;20205;-72
2022/08/10 03:13:49;;;;;;;4.93;2.37;;;;;;;12.89;100.00;101840.41;5012089;28;20214;-72
2022/08/10 03:16:17;;;;;;;3.57;2.20;;;;;;;13.18;100.00;101839.06;5018317;28;20209;-72
2022/08/10 03:18:46;;;;;;;4.67;2.80;;;;;;;13.15;100.00;101832.13;5006942;28;20211;-72
2022/08/10 03:21:15;;;;;;;3.00;2.40;;;;;;;13.19;100.00;101832.94;5017813;28;20205;-72
2022/08/10 03:23:45;;;;;;;3.50;2.57;;;;;;;13.21;100.00;101828.56;5009260;28;20224;-72
2022/08/10 03:26:15;;;;;;;3.40;2.60;;;;;;;13.08;100.00;101827.88;5002798;28;20215;-72
2022/08/10 03:28:42;;;;;;;4.33;2.83;;;;;;;12.99;100.00;101838.53;5009619;28;20667;-73
2022/08/10 03:31:09;;;;;;;4.50;2.70;;;;;;;12.99;100.00;101838.53;5014209;28;20668;-72
2022/08/10 03:33:39;;;;;;;4.47;2.87;;;;;;;12.93;100.00;101830.75;5001229;28;20227;-72
2022/08/10 03:36:06;;;;;;;2.93;2.53;;;;;;;12.80;100.00;101838.81;5029489;28;20207;-72
2022/08/10 03:38:33;;;;;;;3.07;2.40;;;;;;;12.75;100.00;101834.53;5017089;28;20205;-72
2022/08/10 03:41:03;;;;;;;3.03;2.50;;;;;;;12.71;100.00;101838.09;5016957;28;20706;-72
2022/08/10 03:43:31;;;;;;;3.87;2.67;;;;;;;12.67;100.00;101835.53;5019841;28;20270;-72
2022/08/10 03:46:01;;;;;;;3.13;2.53;;;;;;;12.69;100.00;101838.97;5015897;28;20307;-73
2022/08/10 03:48:30;;;;;;;4.67;2.70;;;;;;;12.73;100.00;101836.31;5012969;28;20203;-72
2022/08/10 03:50:58;;;;;;;3.53;2.53;;;;;;;12.65;100.00;101839.06;5021649;28;20196;-72
2022/08/10 03:53:25;;;;;;;4.07;2.43;;;;;;;12.54;100.00;101836.63;5018408;28;20231;-72
2022/08/10 03:55:51;;;;;;;6.93;2.50;;;;;;;12.56;100.00;101839.19;5008201;28;20205;-72
2022/08/10 03:58:19;;;;;;;4.30;2.90;;;;;;;12.65;100.00;101842.53;5027860;28;20204;-73
2022/08/10 04:00:49;;;;;;;3.33;2.30;;;;;;;12.82;100.00;101839.69;5023564;28;20200;-72
2022/08/10 04:03:16;;;;;;;2.73;2.40;;;;;;;12.82;100.00;101844.03;5012661;28;20961;-73
2022/08/10 04:05:43;;;;;;;3.60;2.70;;;;;;;12.75;100.00;101840.66;5018361;28;20664;-72
2022/08/10 04:08:10;;;;;;;3.57;2.40;;;;;;;12.85;100.00;101839.59;5015238;28;20231;-72
2022/08/10 04:10:36;;;;;;;4.13;3.13;;;;;;;13.02;100.00;101838.47;5018701;28;20631;-72
2022/08/10 04:13:03;;;;;;;4.03;2.90;;;;;;;13.15;100.00;101842.59;4999227;28;20608;-72
2022/08/10 04:15:31;;;;;;;5.27;2.40;;;;;;;13.12;100.00;101850.53;5003294;28;20219;-72
2022/08/10 04:17:57;;;;;;;3.53;2.90;;;;;;;13.06;100.00;101848.84;5020469;28;20205;-72
2022/08/10 04:20:29;;;;;;;4.77;2.87;;;;;;;12.85;100.00;101859.69;5013320;28;20213;-73
2022/08/10 04:22:59;;;;;;;3.40;2.90;;;;;;;12.98;100.00;101850.75;5019499;28;20279;-72
2022/08/10 04:25:26;;;;;;;3.37;2.60;;;;;;;13.35;100.00;101852.75;5015982;28;20673;-73
2022/08/10 04:27:53;;;;;;;3.93;2.80;;;;;;;13.57;100.00;101861.06;5017534;28;20212;-72
2022/08/10 04:30:20;;;;;;;3.63;2.87;;;;;;;13.57;100.00;101866.31;5013446;28;20206;-72
2022/08/10 04:32:53;;;;;;;3.07;2.40;;;;;;;13.77;100.00;101860.72;5018398;28;20220;-72
2022/08/10 04:35:23;;;;;;;3.10;2.77;;;;;;;14.01;100.00;101864.56;5028801;28;20231;-72
2022/08/10 04:37:51;;;;;;;3.70;2.97;;;;;;;14.06;100.00;101867.09;5005706;28;20207;-72
2022/08/10 04:40:19;;;;;;;3.37;2.80;;;;;;;14.10;100.00;101862.66;5012939;28;20193;-72
2022/08/10 04:42:45;;;;;;;4.53;3.13;;;;;;;14.14;100.00;101853.81;5017976;28;20708;-72
2022/08/10 04:45:13;;;;;;;4.57;2.90;;;;;;;14.11;100.00;101864.41;5018080;28;20193;-72
2022/08/10 04:47:40;;;;;;;4.50;2.93;;;;;;;14.12;100.00;101856.47;5021351;28;20205;-72
2022/08/10 04:50:09;;;;;;;3.53;2.50;;;;;;;14.15;100.00;101855.56;5015267;28;20208;-72
2022/08/10 04:52:35;;;;;;;4.43;2.70;;;;;;;14.13;100.00;101862.59;5010709;28;20221;-73
2022/08/10 04:55:02;;;;;;;3.10;2.80;;;;;;;14.19;100.00;101860.72;5012803;28;20219;-72
2022/08/10 04:57:29;;;;;;;3.27;2.40;;;;;;;14.31;100.00;101861.31;4996025;28;20211;-72
2022/08/10 04:59:55;;;;;;;3.13;2.53;;;;;;;14.45;100.00;101861.03;4996849;28;20207;-72
2022/08/10 05:02:22;;;;;;;5.60;2.53;;;;;;;14.54;100.00;101868.69;5013770;28;20230;-73
2022/08/10 05:04:48;;;;;;;4.60;2.60;;;;;;;14.60;100.00;101862.44;5009464;28;20230;-72
2022/08/10 05:07:17;;;;;;;3.23;2.50;;;;;;;14.82;100.00;101870.69;5024221;28;20201;-73
2022/08/10 05:09:44;;;;;;;5.03;3.17;;;;;;;14.91;100.00;101867.84;5018285;28;20212;-73
2022/08/10 05:12:10;;;;;;;3.43;2.43;;;;;;;14.89;100.00;101865.25;5019335;28;20620;-72
2022/08/10 05:14:37;;;;;;;3.33;2.80;;;;;;;15.04;100.00;101864.03;5022669;28;20216;-72
2022/08/10 05:17:03;;;;;;;3.70;2.70;;;;;;;15.09;100.00;101870.03;5019165;28;20217;-72
2022/08/10 05:19:30;;;;;;;2.90;2.50;;;;;;;15.10;100.00;101874.34;5024366;28;20695;-72
2022/08/10 05:21:56;;;;;;;6.43;3.10;;;;;;;15.22;100.00;101869.72;5015809;28;20204;-72
2022/08/10 05:24:24;;;;;;;3.33;2.60;;;;;;;15.33;100.00;101860.63;5012838;28;20691;-72
2022/08/10 05:26:50;;;;;;;3.50;2.40;;;;;;;15.36;100.00;101875.47;5023245;28;20569;-72
2022/08/10 05:29:17;;;;;;;4.10;3.03;;;;;;;15.42;100.00;101883.16;5019380;28;20199;-72
2022/08/10 05:31:43;;;;;;;2.93;2.60;;;;;;;15.37;100.00;101878.94;5026363;28;20211;-72
2022/08/10 05:34:10;;;;;;;3.57;2.30;;;;;;;15.40;100.00;101882.34;5026950;28;20720;-72
2022/08/10 05:36:36;;;;;;;3.27;2.73;;;;;;;15.55;100.00;101878.47;5017889;28;20264;-73
2022/08/10 05:39:04;;;;;;;2.87;2.30;;;;;;;15.64;100.00;101880.84;5020027;28;20215;-73
2022/08/10 05:41:33;;;;;;;4.50;3.00;;;;;;;15.67;99.80;101879.88;5024096;28;20205;-72
2022/08/10 05:44:00;;;;;;;3.97;2.70;;;;;;;15.77;99.41;101880.53;5015908;28;20213;-72
2022/08/10 05:46:27;;;;;;;2.90;2.60;;;;;;;15.89;99.20;101882.81;5018974;28;20202;-72
2022/08/10 05:48:53;;;;;;;5.70;3.07;;;;;;;15.95;98.07;101889.66;5016638;28;20213;-72
2022/08/10 05:51:20;;;;;;;4.13;2.90;;;;;;;15.98;97.05;101893.06;5012632;28;20591;-72
2022/08/10 05:53:46;;;;;;;5.10;2.90;;;;;;;16.12;97.56;101897.09;5020673;28;20236;-73
2022/08/10 05:56:13;;;;;;;3.57;3.00;;;;;;;16.25;97.03;101901.94;5019894;28;20200;-72
2022/08/10 05:58:41;;;;;;;3.03;2.43;;;;;;;16.40;97.20;101899.75;5019973;28;20205;-72
2022/08/10 06:01:12;;;;;;;4.07;2.43;;;;;;;16.47;95.67;101906.56;5009836;28;20199;-73
2022/08/10 06:03:46;;;;;;;5.40;3.00;;;;;;;16.59;96.27;101902.69;5014482;28;20210;-72
2022/08/10 06:06:17;;;;;;;2.80;2.50;;;;;;;16.69;95.15;101900.63;5012917;28;20235;-73
2022/08/10 06:08:46;;;;;;;4.03;3.10;;;;;;;16.76;94.29;101907.41;4998939;28;20705;-73
2022/08/10 06:11:15;;;;;;;4.23;2.80;;;;;;;16.83;92.19;101904.59;5009131;28;20204;-73
2022/08/10 06:16:29;;;;;;;3.17;2.50;;;;;;;17.01;90.91;101907.53;5014343;28;20210;-72
2022/08/10 06:18:57;;;;;;;5.33;2.70;;;;;;;17.09;90.58;101912.53;4994762;28;20262;-72
2022/08/10 06:21:24;;;;;;;4.43;2.47;;;;;;;17.11;89.76;101911.56;4996268;28;20210;-72
2022/08/10 06:23:52;;;;;;;3.33;2.93;;;;;;;17.26;89.45;101912.00;5012311;28;20223;-73
2022/08/10 06:26:19;;;;;;;3.43;2.50;;;;;;;17.36;89.01;101906.34;5017326;28;20200;-73
2022/08/10 06:28:50;;;;;;;4.30;2.90;;;;;;;17.49;88.85;101919.97;5012214;28;20564;-72
2022/08/10 06:31:19;;;;;;;3.90;2.70;;;;;;;17.56;87.91;101921.47;5014404;28;20505;-73
2022/08/10 06:33:46;;;;;;;4.00;2.80;;;;;;;17.66;87.68;101915.84;4998373;28;20232;-72
2022/08/10 06:36:13;;;;;;;2.93;2.63;;;;;;;17.75;87.01;101918.19;5017239;28;20212;-72
2022/08/10 06:38:42;;;;;;;3.73;2.63;;;;;;;17.87;86.87;101917.78;5025248;28;20207;-72
2022/08/10 06:41:14;;;;;;;4.77;2.70;;;;;;;17.91;84.17;101914.09;5010619;28;20209;-73
2022/08/10 06:43:45;;;;;;;4.47;2.73;;;;;;;18.01;83.79;101913.75;5008572;28;20220;-72
2022/08/10 06:46:16;;;;;;;4.60;2.60;;;;;;;18.12;84.17;101916.88;5011717;28;20196;-73
2022/08/10 06:48:49;;;;;;;3.10;2.50;;;;;;;18.22;83.71;101920.88;5012121;28;20200;-72
2022/08/10 06:51:21;;;;;;;6.17;3.23;;;;;;;18.33;82.74;101918.69;5010017;28;20200;-72
2022/08/10 06:53:52;;;;;;;5.60;2.50;;;;;;;18.44;81.23;101910.38;4998340;28;20221;-72
2022/08/10 06:56:21;;;;;;;3.40;2.33;;;;;;;18.59;81.94;101918.59;5008610;28;20558;-72
2022/08/10 06:58:53;;;;;;;4.27;2.70;;;;;;;18.67;80.65;101919.16;5018913;28;20553;-73
2022/08/10 07:01:25;;;;;;;3.67;2.80;;;;;;;18.75;81.80;101911.81;5017097;28;20212;-73
2022/08/10 07:03:58;;;;;;;4.73;2.60;;;;;;;18.83;79.74;101914.16;5004362;28;20860;-72
2022/08/10 07:06:24;;;;;;;5.57;3.00;;;;;;;18.94;79.30;101913.72;5010045;28;20683;-73
2022/08/10 07:08:53;;;;;;;4.57;2.57;;;;;;;19.03;78.05;101911.56;5015337;28;20545;-73
2022/08/10 07:11:21;;;;;;;4.17;2.80;;;;;;;19.21;79.68;101915.22;5015745;28;20201;-73
2022/08/10 07:13:49;;;;;;;4.00;2.50;;;;;;;19.40;78.16;101903.84;5016624;28;20235;-73
2022/08/10 07:16:17;;;;;;;4.27;3.10;;;;;;;19.48;76.13;101913.19;5007244;28;20212;-73
2022/08/10 07:18:47;;;;;;;2.73;2.50;;;;;;;19.56;76.23;101907.56;5021464;28;20216;-72
2022/08/10 07:21:15;;;;;;;3.90;2.97;;;;;;;19.68;76.00;101904.41;4996896;28;20196;-73
2022/08/10 07:23:46;;;;;;;4.13;2.33;;;;;;;19.79;73.80;101906.59;5020354;28;20230;-72
2022/08/10 07:26:13;;;;;;;2.77;2.50;;;;;;;19.95;74.14;101909.41;5008060;28;20200;-72
2022/08/10 07:28:40;;;;;;;2.90;2.60;;;;;;;20.09;73.08;101906.13;4994881;28;20720;-72
2022/08/10 07:31:07;;;;;;;3.43;2.60;;;;;;;20.26;72.00;101913.28;5008330;28;20664;-73
2022/08/10 07:33:35;;;;;;;4.33;2.77;;;;;;;20.46;70.65;101916.81;5015962;28;20231;-72
2022/08/10 07:36:05;;;;;;;4.47;2.80;;;;;;;20.58;69.97;101917.06;5021255;28;20227;-72
2022/08/10 07:38:34;;;;;;;6.00;3.00;;;;;;;20.71;69.03;101916.50;5013262;28;20196;-73
2022/08/10 07:41:02;;;;;;;4.87;3.00;;;;;;;20.77;68.25;101913.56;4989709;28;20308;-73
2022/08/10 07:43:34;;;;;;;3.90;2.50;;;;;;;20.92;67.23;101926.06;5009334;28;20316;-72
2022/08/10 07:46:03;;;;;;;5.10;2.87;;;;;;;21.14;64.10;101925.88;5009314;28;20284;-72
2022/08/10 07:48:33;;;;;;;2.60;2.40;;;;;;;21.29;62.33;101924.22;5011229;28;20238;-73
2022/08/10 07:51:01;;;;;;;4.17;2.70;;;;;;;21.37;62.35;101922.03;5009758;28;20204;-73
2022/08/10 07:53:33;;;;;;;5.97;2.80;;;;;;;21.45;61.57;101924.28;5017494;28;20580;-73
2022/08/10 07:56:02;;;;;;;3.00;2.57;;;;;;;21.52;62.01;101912.44;5017133;28;20208;-72
2022/08/10 07:58:36;;;;;;;3.70;2.60;;;;;;;21.70;62.30;101918.59;5010953;28;20203;-72
2022/08/10 08:01:02;;;;;;;7.10;2.60;;;;;;;21.78;59.90;101917.34;5013566;28;20542;-73
2022/08/10 08:03:32;;;;;;;2.70;2.23;;;;;;;21.90;60.60;101916.69;5011927;28;20228;-73
2022/08/10 08:06:01;;;;;;;3.23;2.43;;;;;;;21.96;58.90;101916.34;5010424;28;20560;-73
2022/08/10 08:08:31;;;;;;;3.73;2.60;;;;;;;22.07;58.67;101915.78;4999498;28;20207;-72
2022/08/10 08:10:59;;;;;;;6.10;2.80;;;;;;;22.12;57.91;101919.88;5008089;28;20203;-72
2022/08/10 08:13:27;;;;;;;2.90;2.40;;;;;;;22.36;58.42;101913.38;5001754;28;20555;-72
2022/08/10 08:15:56;;;;;;;4.10;2.53;;;;;;;22.56;58.06;101915.75;5008984;28;20599;-72
2022/08/10 08:18:24;;;;;;;4.43;2.43;;;;;;;22.62;56.56;101914.53;4993821;28;20218;-73
2022/08/10 08:20:53;;;;;;;3.33;2.83;;;;;;;22.71;57.29;101903.41;5008918;28;20219;-72
2022/08/10 08:23:20;;;;;;;3.00;2.60;;;;;;;22.82;55.96;101916.91;5010019;28;20691;-73
2022/08/10 08:25:49;;;;;;;3.00;2.60;;;;;;;22.96;55.17;101915.28;5019668;28;20224;-72
2022/08/10 08:28:16;;;;;;;3.00;2.70;;;;;;;22.95;56.39;101913.56;5009679;28;20208;-72
2022/08/10 08:30:45;;;;;;;3.97;2.57;;;;;;;23.10;54.46;101914.50;5016862;28;20200;-72
2022/08/10 08:33:14;;;;;;;5.50;2.90;;;;;;;23.17;54.75;101911.38;5010661;28;20229;-72
2022/08/10 08:35:42;;;;;;;4.20;2.83;;;;;;;23.36;54.76;101918.25;5022364;28;20581;-72
2022/08/10 08:38:09;;;;;;;4.10;2.80;;;;;;;23.52;54.53;101910.22;4991258;28;20200;-73
2022/08/10 08:40:37;;;;;;;3.58;2.50;;;;;;;23.56;52.30;101919.72;5012704;28;20204;-72
2022/08/10 08:43:23;;;;;;;5.77;2.67;;;;;;;23.71;52.79;101917.94;5015005;28;20217;-72
2022/08/10 08:46:16;;;;;;;2.20;2.00;;;;;;;23.86;52.97;101914.34;5007543;28;20207;-73
2022/08/10 08:48:57;;;;;;;2.97;2.33;;;;;;;24.09;52.01;101912.06;5005877;28;20192;-73
2022/08/10 08:51:33;;;;;;;2.35;2.20;;;;;;;24.25;51.06;101910.13;5012693;28;20225;-73
2022/08/10 08:54:14;;;;;;;3.45;2.40;;;;;;;24.30;50.41;101916.03;5016502;28;20247;-73
2022/08/10 08:56:46;;;;;;;3.40;2.55;;;;;;;24.22;50.64;101907.69;5011640;28;20208;-73
2022/08/10 08:59:29;;;;;;;4.22;2.45;;;;;;;24.17;49.89;101904.47;5019556;28;20197;-73
2022/08/10 09:02:13;;;;;;;3.25;2.30;;;;;;;24.35;49.63;101913.06;5013006;28;20200;-73
2022/08/10 09:05:04;;;;;;;4.03;2.25;;;;;;;24.35;49.88;101900.59;5018916;28;20204;-73
2022/08/10 09:07:57;;;;;;;5.68;2.40;;;;;;;24.37;48.70;101917.34;5011092;28;20200;-73
2022/08/10 09:10:34;;;;;;;3.95;2.38;;;;;;;24.43;48.38;101896.59;5013510;28;20208;-73
2022/08/10 09:13:07;;;;;;;3.60;2.20;;;;;;;24.72;46.17;101906.22;5010462;28;20215;-72
2022/08/10 09:15:41;;;;;;;2.58;2.10;;;;;;;24.87;46.88;101898.16;5014913;28;20200;-72
2022/08/10 09:18:14;;;;;;;4.30;2.30;;;;;;;24.97;46.64;101890.41;5018626;28;20200;-73
2022/08/10 09:20:47;;;;;;;2.38;1.90;;;;;;;25.12;45.75;101898.25;5009477;28;20201;-73
2022/08/10 09:23:23;;;;;;;3.10;2.50;;;;;;;25.21;46.17;101894.09;5011725;28;20223;-72
2022/08/10 09:25:53;;;;;;;3.58;2.15;;;;;;;25.28;46.30;101890.06;5015123;28;20210;-72
2022/08/10 09:28:24;;;;;;;4.28;2.30;;;;;;;25.36;45.08;101899.38;5010825;28;20217;-73
2022/08/10 09:30:58;;;;;;;2.00;1.80;;;;;;;25.47;46.58;101887.00;5010732;28;20211;-73
2022/08/10 09:33:32;;;;;;;3.20;2.42;;;;;;;25.64;45.41;101890.28;5016030;28;20611;-73
2022/08/10 09:36:07;;;;;;;4.88;1.90;;;;;;;25.65;43.81;101900.03;5015788;28;20763;-73
2022/08/10 09:38:42;;;;;;;2.60;1.98;;;;;;;25.69;43.45;101897.00;5012806;28;20227;-72
2022/08/10 09:41:19;;;;;;;3.05;2.15;;;;;;;25.63;42.99;101892.13;5010616;28;20807;-72
2022/08/10 09:43:54;;;;;;;7.57;2.35;;;;;;;25.67;43.80;101887.41;5017342;28;20220;-73
2022/08/10 09:46:44;;;;;;;4.97;2.50;;;;;;;25.68;42.20;101892.66;5010174;28;20194;-73
2022/08/10 09:49:17;;;;;;;3.05;2.10;;;;;;;25.92;42.48;101893.69;5016654;28;20665;-72
2022/08/10 09:51:54;;;;;;;2.90;2.10;;;;;;;26.04;42.99;101888.34;5011334;28;20207;-73
2022/08/10 09:54:29;;;;;;;2.50;1.90;;;;;;;26.07;41.58;101888.13;5010521;28;20196;-73
2022/08/10 09:57:04;;;;;;;2.15;1.92;;;;;;;26.18;39.63;101895.38;5014912;28;20211;-73
2022/08/10 09:59:38;;;;;;;2.10;1.90;;;;;;;26.36;40.84;101886.97;5008724;28;20212;-73
2022/08/10 10:02:26;;;;;;;2.92;2.13;;;;;;;26.60;38.89;101887.00;5008182;28;20685;-72
2022/08/10 10:05:06;;;;;;;2.13;1.60;;;;;;;26.78;38.47;101887.47;4988290;28;20247;-72
2022/08/10 10:07:36;;;;;;;3.35;2.15;;;;;;;26.78;39.29;101882.09;5007394;28;20933;-72
2022/08/10 10:10:08;;;;;;;2.33;2.00;;;;;;;26.76;39.27;101876.03;5011768;28;20196;-72
2022/08/10 10:12:44;;;;;;;2.30;2.10;;;;;;;26.85;38.28;101869.97;5009372;28;20230;-73
2022/08/10 10:15:20;;;;;;;2.70;2.00;;;;;;;26.96;38.50;101870.00;5018326;28;20711;-73
2022/08/10 10:18:10;;;;;;;2.20;2.00;;;;;;;27.18;37.36;101874.56;4963978;28;20225;-73
2022/08/10 10:20:42;;;;;;;1.58;1.48;;;;;;;27.34;36.41;101873.41;4970047;28;20611;-73
2022/08/10 10:23:18;;;;;;;2.35;1.85;;;;;;;27.68;36.75;101866.25;4973291;28;20230;-73
2022/08/10 10:25:53;;;;;;;6.18;1.90;;;;;;;27.37;34.51;101866.00;4951857;28;20226;-73
2022/08/10 10:28:35;;;;;;;1.77;1.55;;;;;;;27.17;35.03;101862.16;4967919;28;20197;-73
2022/08/10 10:31:12;;;;;;;2.03;1.80;;;;;;;26.93;36.59;101858.69;4974475;28;20228;-73
2022/08/10 10:33:51;;;;;;;1.70;1.58;;;;;;;26.79;36.80;101852.56;4975486;28;20230;-73
2022/08/10 10:36:19;;;;;;;2.03;1.70;;;;;;;27.17;37.05;101859.47;4973589;28;20214;-72
2022/08/10 10:38:47;;;;;;;2.00;1.80;;;;;;;27.58;36.09;101859.91;4972566;28;20204;-72
2022/08/10 10:41:26;;;;;;;2.35;1.75;;;;;;;27.92;35.29;101855.44;4977436;28;20202;-72
2022/08/10 10:44:04;;;;;;;4.40;1.75;;;;;;;28.13;34.59;101852.00;4969917;28;20704;-73
2022/08/10 10:46:46;;;;;;;1.92;1.63;;;;;;;28.29;33.45;101849.75;4968346;28;20189;-73
2022/08/10 10:49:22;;;;;;;3.65;1.77;;;;;;;28.12;32.74;101845.75;4964914;28;20678;-73
2022/08/10 10:51:59;;;;;;;3.45;1.90;;;;;;;28.14;31.43;101848.31;4964167;28;20196;-72
2022/08/10 10:54:39;;;;;;;3.67;1.77;;;;;;;28.26;32.92;101843.78;4964876;28;20908;-72
2022/08/10 10:57:13;;;;;;;2.45;1.63;;;;;;;28.34;33.09;101838.66;4973085;28;20217;-72
2022/08/10 10:59:48;;;;;;;2.33;1.65;;;;;;;28.59;32.27;101839.31;4975291;28;20609;-73
2022/08/10 11:02:27;;;;;;;1.77;1.55;;;;;;;28.73;34.23;101827.44;4965007;28;20232;-72
2022/08/10 11:05:08;;;;;;;1.90;1.70;;;;;;;28.53;32.24;101829.94;4966451;28;20283;-73
2022/08/10 11:07:41;;;;;;;2.25;1.63;;;;;;;28.83;32.08;101825.66;4968916;28;20205;-73
2022/08/10 11:10:13;;;;;;;1.40;1.30;;;;;;;28.96;31.31;101830.84;4971933;28;20202;-72
2022/08/10 11:12:46;;;;;;;1.90;1.50;;;;;;;28.90;31.12;101821.47;4968942;28;20221;-73
2022/08/10 11:15:23;;;;;;;1.73;1.52;;;;;;;28.98;31.31;101823.50;4972414;28;20201;-72
2022/08/10 11:17:56;;;;;;;2.55;1.77;;;;;;;29.03;33.06;101813.22;4954033;28;20201;-73
2022/08/10 11:20:31;;;;;;;2.78;1.38;;;;;;;29.07;33.21;101806.59;4982462;28;20216;-73
2022/08/10 11:23:04;;;;;;;1.60;1.40;;;;;;;29.08;32.24;101813.69;4972561;28;20328;-72
2022/08/10 11:25:35;;;;;;;1.80;1.70;;;;;;;29.08;31.39;101803.78;4964505;28;20198;-73
2022/08/10 11:28:10;;;;;;;2.08;1.70;;;;;;;29.25;30.96;101806.84;4950305;28;20198;-73
2022/08/10 11:30:47;;;;;;;1.77;1.65;;;;;;;29.40;31.72;101807.38;4965749;28;20209;-72
2022/08/10 11:33:19;;;;;;;3.08;1.52;;;;;;;29.48;30.98;101810.22;4979103;28;20256;-73
2022/08/10 11:35:50;;;;;;;3.92;1.80;;;;;;;29.56;30.46;101807.69;4977254;28;20898;-72
2022/08/10 11:38:25;;;;;;;2.28;1.90;;;;;;;29.57;30.23;101806.72;4966629;28;20240;-73
2022/08/10 11:41:00;;;;;;;2.75;1.50;;;;;;;29.67;30.08;101804.06;4974168;28;20216;-72